Time;durP1;ratioP1;P1;durP2;ratioP2;P2;SDS_P1;SDS_P2;PMS_P1;PMS_P2;Temp;Humidity;BMP_temperature;BMP_pressure;BME280_temperature;BME280_humidity;BME280_pressure;Samples;Min_cycle;Max_cycle;Signal;HPM_P1;HPM_P2
2023/03/09 00:01:31;;;;;;;27.00;13.25;;;0.60;99.90;;;-1.22;100.00;98431.34;4991605;28;20489;-77
2023/03/09 00:03:59;;;;;;;25.17;11.82;;;0.50;99.90;;;-1.22;100.00;98432.16;4990417;28;20553;-77
2023/03/09 00:06:26;;;;;;;25.30;12.77;;;0.60;99.90;;;-1.25;100.00;98421.84;4987404;28;20081;-77
2023/03/09 00:08:52;;;;;;;27.33;12.95;;;0.60;99.90;;;-1.21;100.00;98430.31;4991067;28;20566;-76
2023/03/09 00:11:19;;;;;;;26.95;12.15;;;0.60;99.90;;;-1.23;100.00;98427.81;5003287;28;20511;-77
2023/03/09 00:13:47;;;;;;;26.58;12.63;;;0.60;99.90;;;-1.24;100.00;98425.34;4990826;28;20395;-76
2023/03/09 00:16:21;;;;;;;25.48;12.30;;;0.60;99.90;;;-1.27;100.00;98420.38;4991784;28;20470;-77
2023/03/09 00:18:48;;;;;;;25.00;12.10;;;0.50;99.90;;;-1.28;100.00;98410.72;4991725;28;20061;-76
2023/03/09 00:24:12;;;;;;;24.00;11.93;;;0.50;99.90;;;-1.28;100.00;98424.09;4995401;28;20104;-76
2023/03/09 00:26:42;;;;;;;25.75;12.30;;;0.50;99.90;;;-1.28;100.00;98421.41;4991338;28;20034;-77
2023/03/09 00:29:11;;;;;;;22.73;11.90;;;0.50;99.90;;;-1.33;100.00;98413.97;4992152;28;20097;-76
2023/03/09 00:31:38;;;;;;;24.95;12.65;;;0.50;99.90;;;-1.24;100.00;98425.34;4991557;28;20080;-77
2023/03/09 00:34:05;;;;;;;25.90;12.43;;;0.50;99.90;;;-1.29;100.00;98427.78;4991810;28;20042;-77
2023/03/09 00:36:30;;;;;;;22.63;11.63;;;0.50;99.90;;;-1.35;100.00;98411.47;4963879;28;20079;-77
2023/03/09 00:38:58;;;;;;;24.80;12.70;;;0.50;99.90;;;-1.34;100.00;98410.44;4990339;28;20085;-77
2023/03/09 00:41:28;;;;;;;25.63;12.27;;;0.50;99.90;;;-1.35;100.00;98405.31;4980488;28;20038;-77
2023/03/09 00:43:54;;;;;;;27.52;13.07;;;0.50;99.90;;;-1.36;100.00;98400.97;4989315;28;20042;-77
2023/03/09 00:46:20;;;;;;;25.02;12.32;;;0.40;99.90;;;-1.37;100.00;98394.78;4990058;28;20378;-76
2023/03/09 00:48:46;;;;;;;24.15;11.43;;;0.40;99.90;;;-1.39;100.00;98396.84;4991910;28;20047;-76
2023/03/09 00:51:12;;;;;;;24.77;11.55;;;0.40;99.90;;;-1.44;100.00;98393.91;4991475;28;20473;-76
2023/03/09 00:53:39;;;;;;;23.13;11.95;;;0.40;99.90;;;-1.42;100.00;98389.19;4975247;28;20039;-76
2023/03/09 00:56:12;;;;;;;23.15;10.77;;;0.40;99.90;;;-1.42;100.00;98377.69;4989814;28;20121;-76
2023/03/09 00:58:37;;;;;;;23.90;11.90;;;0.40;99.90;;;-1.39;100.00;98396.03;4989206;28;20116;-76
2023/03/09 01:01:11;;;;;;;21.88;10.55;;;0.40;99.90;;;-1.41;100.00;98392.72;4990796;28;20141;-76
2023/03/09 01:03:39;;;;;;;23.08;11.38;;;0.40;99.90;;;-1.42;100.00;98391.88;4990680;28;20034;-76
2023/03/09 01:06:06;;;;;;;25.00;12.23;;;0.40;99.90;;;-1.40;100.00;98383.66;4991015;28;20030;-76
2023/03/09 01:08:33;;;;;;;25.60;11.68;;;0.40;99.90;;;-1.39;100.00;98370.06;4980337;28;20046;-76
2023/03/09 01:10:59;;;;;;;24.60;11.98;;;0.40;99.90;;;-1.42;100.00;98353.63;4990307;28;20041;-76
2023/03/09 01:13:25;;;;;;;26.90;12.38;;;0.40;99.90;;;-1.42;100.00;98354.41;5005742;28;20507;-76
2023/03/09 01:15:51;;;;;;;25.67;11.82;;;0.40;99.90;;;-1.40;100.00;98349.69;4991094;28;20105;-77
2023/03/09 01:18:17;;;;;;;25.60;12.15;;;0.40;99.90;;;-1.43;100.00;98349.28;4989747;28;20474;-75
2023/03/09 01:20:43;;;;;;;21.30;11.00;;;0.40;99.90;;;-1.44;100.00;98351.13;4990533;28;20093;-76
2023/03/09 01:23:08;;;;;;;25.35;11.85;;;0.40;99.90;;;-1.45;100.00;98338.75;4973074;28;20092;-77
2023/03/09 01:25:35;;;;;;;25.83;12.02;;;0.40;99.90;;;-1.46;100.00;98345.13;4990578;28;20037;-77
2023/03/09 01:28:00;;;;;;;26.23;12.13;;;0.40;99.90;;;-1.46;100.00;98347.81;4988457;28;20390;-77
2023/03/09 01:30:26;;;;;;;28.02;12.30;;;0.40;99.90;;;-1.47;100.00;98343.50;4990826;28;20088;-77
2023/03/09 01:32:53;;;;;;;26.10;11.43;;;0.40;99.90;;;-1.45;100.00;98328.06;4990815;28;20026;-77
2023/03/09 01:35:19;;;;;;;27.60;12.73;;;0.40;99.90;;;-1.43;100.00;98330.56;4989789;28;20035;-77
2023/03/09 01:37:46;;;;;;;26.52;11.93;;;0.40;99.90;;;-1.46;100.00;98326.41;4986290;28;20043;-77
2023/03/09 01:40:20;;;;;;;25.37;12.47;;;0.40;99.90;;;-1.44;100.00;98335.06;4986744;28;20050;-77
2023/03/09 01:43:01;;;;;;;28.55;12.55;;;0.40;99.90;;;-1.42;100.00;98329.53;4983270;28;20578;-76
2023/03/09 01:45:27;;;;;;;24.85;12.00;;;0.40;99.90;;;-1.39;100.00;98319.25;4985515;28;20038;-77
2023/03/09 01:47:57;;;;;;;27.23;13.00;;;0.40;99.90;;;-1.42;100.00;98311.63;5002710;28;20049;-75
2023/03/09 01:50:32;;;;;;;27.30;12.77;;;0.40;99.90;;;-1.42;100.00;98318.84;5002404;28;20129;-75
2023/03/09 01:53:07;;;;;;;29.52;12.68;;;0.40;99.90;;;-1.38;100.00;98328.13;4989501;28;20061;-76
2023/03/09 01:55:43;;;;;;;26.42;12.90;;;0.40;99.90;;;-1.42;100.00;98324.19;5007999;28;20031;-76
2023/03/09 01:58:19;;;;;;;26.92;12.65;;;0.40;99.90;;;-1.47;100.00;98308.72;4987996;28;20129;-75
2023/03/09 02:00:51;;;;;;;28.60;13.00;;;0.40;99.90;;;-1.42;100.00;98319.66;4988676;28;20085;-77
2023/03/09 02:03:36;;;;;;;27.23;13.48;;;0.40;99.90;;;-1.45;100.00;98325.38;5004864;28;20093;-74
2023/03/09 02:06:16;;;;;;;25.33;12.45;;;0.40;99.90;;;-1.43;100.00;98341.25;5003991;28;20121;-75
2023/03/09 02:09:33;;;;;;;24.52;12.57;;;0.40;99.90;;;-1.41;100.00;98339.22;4985719;28;20042;-75
2023/03/09 02:12:02;;;;;;;26.73;12.18;;;0.40;99.90;;;-1.42;100.00;98335.69;5003119;28;20038;-75
2023/03/09 02:14:31;;;;;;;25.55;12.48;;;0.40;99.90;;;-1.43;100.00;98339.41;4985929;28;20038;-76
2023/03/09 02:16:57;;;;;;;24.63;12.15;;;0.40;99.90;;;-1.43;100.00;98343.94;4989824;28;20042;-76
2023/03/09 02:19:46;;;;;;;23.52;11.13;;;0.40;99.90;;;-1.45;100.00;98344.13;4986170;28;20078;-76
2023/03/09 02:22:12;;;;;;;25.15;12.68;;;0.40;99.90;;;-1.46;100.00;98351.31;4986765;28;20046;-75
2023/03/09 02:25:09;;;;;;;22.60;11.55;;;0.40;99.90;;;-1.43;100.00;98354.63;4992366;28;20062;-75
2023/03/09 02:27:35;;;;;;;23.77;12.18;;;0.40;99.90;;;-1.46;100.00;98358.50;4986435;28;20034;-76
2023/03/09 02:30:03;;;;;;;23.73;12.05;;;0.30;99.90;;;-1.46;100.00;98356.69;5008142;28;20482;-76
2023/03/09 02:32:33;;;;;;;22.80;11.45;;;0.30;99.90;;;-1.46;100.00;98359.34;4991695;28;20053;-76
2023/03/09 02:34:59;;;;;;;23.98;11.15;;;0.30;99.90;;;-1.48;100.00;98360.56;4987359;28;20063;-76
2023/03/09 02:37:33;;;;;;;22.13;11.45;;;0.30;99.90;;;-1.45;100.00;98361.00;4992002;28;20088;-75
2023/03/09 02:40:22;;;;;;;22.48;11.23;;;0.30;99.90;;;-1.44;100.00;98367.16;4992240;28;20042;-76
2023/03/09 02:42:50;;;;;;;24.67;11.25;;;0.30;99.90;;;-1.48;100.00;98365.91;4991511;28;20053;-76
2023/03/09 02:45:21;;;;;;;23.33;11.48;;;0.30;99.90;;;-1.47;100.00;98359.53;4976866;28;20490;-76
2023/03/09 02:47:48;;;;;;;23.52;11.68;;;0.30;99.90;;;-1.48;100.00;98357.88;4989279;28;20500;-75
2023/03/09 02:50:16;;;;;;;21.77;11.55;;;0.30;99.90;;;-1.49;100.00;98365.06;4980907;28;20086;-76
2023/03/09 02:52:42;;;;;;;24.17;11.88;;;0.30;99.90;;;-1.53;100.00;98363.00;4989891;28;20023;-75
2023/03/09 02:55:08;;;;;;;23.63;11.52;;;0.30;99.90;;;-1.50;100.00;98358.06;5007297;28;20368;-76
2023/03/09 02:57:34;;;;;;;26.13;12.38;;;0.30;99.90;;;-1.49;100.00;98358.91;4993239;28;20058;-76
2023/03/09 03:00:00;;;;;;;23.63;11.25;;;0.30;99.90;;;-1.50;100.00;98351.91;4975878;28;20129;-77
2023/03/09 03:02:26;;;;;;;28.23;12.73;;;0.30;99.90;;;-1.53;100.00;98344.28;4992534;28;20057;-75
2023/03/09 03:04:52;;;;;;;25.33;11.75;;;0.30;99.90;;;-1.54;100.00;98343.44;4991600;28;20472;-75
2023/03/09 03:07:19;;;;;;;24.50;12.20;;;0.30;99.90;;;-1.54;100.00;98350.66;5007606;28;20043;-75
2023/03/09 03:09:45;;;;;;;26.15;11.85;;;0.30;99.90;;;-1.53;100.00;98341.59;4993053;28;20094;-76
2023/03/09 03:12:11;;;;;;;23.85;11.32;;;0.30;99.90;;;-1.54;100.00;98346.09;5007818;28;20379;-76
2023/03/09 03:14:37;;;;;;;27.25;12.57;;;0.30;99.90;;;-1.55;100.00;98349.00;4990983;28;20109;-75
2023/03/09 03:17:03;;;;;;;26.77;12.20;;;0.30;99.90;;;-1.56;100.00;98339.31;4982026;28;20056;-76
2023/03/09 03:19:29;;;;;;;28.05;12.13;;;0.20;99.90;;;-1.61;100.00;98335.34;5007044;28;20390;-75
2023/03/09 03:21:55;;;;;;;29.25;12.82;;;0.30;99.90;;;-1.61;100.00;98343.38;4991297;28;20062;-76
2023/03/09 03:24:21;;;;;;;30.23;13.85;;;0.20;99.90;;;-1.63;100.00;98340.06;4991333;28;20292;-76
2023/03/09 03:26:47;;;;;;;30.20;13.30;;;0.20;99.90;;;-1.59;100.00;98361.91;4990868;28;20045;-76
2023/03/09 03:29:17;;;;;;;27.98;13.23;;;0.20;99.90;;;-1.60;100.00;98366.41;4992627;28;20386;-76
2023/03/09 03:31:43;;;;;;;28.80;13.25;;;0.20;99.90;;;-1.57;100.00;98367.91;5007963;28;20027;-76
2023/03/09 03:34:09;;;;;;;32.88;14.65;;;0.30;99.90;;;-1.61;100.00;98372.78;4974770;28;20030;-76
2023/03/09 03:36:39;;;;;;;30.60;14.80;;;0.20;99.90;;;-1.60;100.00;98395.84;5006946;28;20022;-76
2023/03/09 03:39:05;;;;;;;31.15;14.07;;;0.20;99.90;;;-1.60;100.00;98400.38;5008154;28;20037;-76
2023/03/09 03:41:32;;;;;;;32.28;14.75;;;0.20;99.90;;;-1.61;100.00;98399.53;4978576;28;20035;-77
2023/03/09 03:44:00;;;;;;;34.03;14.65;;;0.20;99.90;;;-1.58;100.00;98408.22;5007505;28;20038;-76
2023/03/09 03:46:26;;;;;;;33.50;14.60;;;0.20;99.90;;;-1.62;100.00;98403.22;4990182;28;20030;-76
2023/03/09 03:48:52;;;;;;;35.47;14.77;;;0.20;99.90;;;-1.62;100.00;98408.56;4992166;28;20452;-76
2023/03/09 03:51:19;;;;;;;34.27;14.33;;;0.30;99.90;;;-1.58;100.00;98410.91;5000349;28;20382;-76
2023/03/09 03:53:48;;;;;;;34.83;15.10;;;0.30;99.90;;;-1.60;100.00;98405.72;4999356;28;20038;-76
2023/03/09 03:56:14;;;;;;;39.40;15.13;;;0.20;99.90;;;-1.55;100.00;98410.50;4992367;28;20069;-76
2023/03/09 03:58:43;;;;;;;37.15;14.38;;;0.20;99.90;;;-1.57;100.00;98420.56;5006711;28;20042;-77
2023/03/09 04:01:09;;;;;;;34.25;15.95;;;0.20;99.90;;;-1.58;100.00;98418.91;4974837;28;20469;-76
2023/03/09 04:03:35;;;;;;;39.28;16.33;;;0.20;99.90;;;-1.64;100.00;98410.63;4974795;28;20045;-77
2023/03/09 04:06:03;;;;;;;35.88;16.05;;;0.20;99.90;;;-1.63;100.00;98416.81;5007150;28;20080;-76
2023/03/09 04:08:31;;;;;;;38.53;16.17;;;0.20;99.90;;;-1.61;100.00;98420.94;4969419;28;20414;-76
2023/03/09 04:10:57;;;;;;;42.22;17.10;;;0.20;99.90;;;-1.62;100.00;98421.13;5006604;28;20038;-76
2023/03/09 04:13:23;;;;;;;36.80;15.85;;;0.20;99.90;;;-1.60;100.00;98427.94;4970346;28;20030;-76
2023/03/09 04:15:50;;;;;;;39.50;16.17;;;0.20;99.90;;;-1.57;100.00;98428.59;4989691;28;20046;-77
2023/03/09 04:18:16;;;;;;;41.78;16.35;;;0.20;99.90;;;-1.60;100.00;98430.59;4989929;28;20036;-77
2023/03/09 04:20:44;;;;;;;36.70;15.48;;;0.20;99.90;;;-1.61;100.00;98436.97;4969153;28;20058;-76
2023/03/09 04:23:10;;;;;;;39.47;16.50;;;0.20;99.90;;;-1.63;100.00;98441.69;5006078;28;20052;-76
2023/03/09 04:25:40;;;;;;;44.60;16.48;;;0.20;99.90;;;-1.64;100.00;98437.34;4990061;28;20410;-77
2023/03/09 04:28:05;;;;;;;40.88;17.08;;;0.20;99.90;;;-1.60;100.00;98449.31;4989634;28;20034;-76
2023/03/09 04:30:43;;;;;;;41.92;16.67;;;0.20;99.90;;;-1.61;100.00;98446.84;4991704;28;20502;-76
2023/03/09 04:33:12;;;;;;;40.88;16.60;;;0.20;99.90;;;-1.56;100.00;98454.31;4989021;28;20042;-76
2023/03/09 04:35:38;;;;;;;39.92;16.20;;;0.20;99.90;;;-1.60;100.00;98462.69;4990046;28;20529;-77
2023/03/09 04:38:09;;;;;;;39.92;16.02;;;0.20;99.90;;;-1.53;100.00;98475.31;4990087;28;20038;-76
2023/03/09 04:40:38;;;;;;;36.42;15.95;;;0.20;99.90;;;-1.52;100.00;98483.16;4989996;28;20035;-76
2023/03/09 04:43:05;;;;;;;41.08;17.45;;;0.30;99.90;;;-1.54;100.00;98489.72;5005781;28;20037;-77
2023/03/09 04:45:31;;;;;;;35.35;15.57;;;0.30;99.90;;;-1.57;100.00;98479.41;4990773;28;20034;-77
2023/03/09 04:47:58;;;;;;;39.30;16.92;;;0.30;99.90;;;-1.55;100.00;98478.19;4988934;28;20038;-76
2023/03/09 04:50:24;;;;;;;36.60;17.10;;;0.30;99.90;;;-1.54;100.00;98482.50;4989835;28;20482;-76
2023/03/09 04:52:55;;;;;;;37.05;15.52;;;0.30;99.90;;;-1.49;100.00;98481.94;4987807;28;20073;-77
2023/03/09 04:55:21;;;;;;;;;;;0.30;99.90;;;-1.50;100.00;98481.09;4990009;28;20374;-76
2023/03/09 04:57:47;;;;;;;37.95;15.65;;;0.30;99.90;;;-1.50;100.00;98485.63;4989423;28;19918;-77
2023/03/09 05:00:15;;;;;;;37.35;16.02;;;0.30;99.90;;;-1.53;100.00;98480.69;5006306;28;20470;-76
2023/03/09 05:02:42;;;;;;;36.78;16.60;;;0.30;99.90;;;-1.51;100.00;98484.78;5006142;28;20031;-76
2023/03/09 05:05:09;;;;;;;34.97;15.27;;;0.30;99.90;;;-1.53;100.00;98488.69;4987269;28;20073;-76
2023/03/09 05:07:36;;;;;;;35.95;15.90;;;0.30;99.90;;;-1.55;100.00;98483.53;5004118;28;20363;-76
2023/03/09 05:10:06;;;;;;;32.65;15.18;;;0.30;99.90;;;-1.50;100.00;98491.00;4988918;28;20528;-76
2023/03/09 05:12:33;;;;;;;33.60;15.25;;;0.30;99.90;;;-1.53;100.00;98486.84;4993307;28;20030;-76
2023/03/09 05:15:03;;;;;;;35.42;15.93;;;0.30;99.90;;;-1.54;100.00;98492.41;4960347;28;20039;-76
2023/03/09 05:17:31;;;;;;;35.13;15.68;;;0.30;99.90;;;-1.54;100.00;98500.41;4988854;28;20125;-76
2023/03/09 05:19:56;;;;;;;33.72;14.77;;;0.30;99.90;;;-1.52;100.00;98506.41;4965798;28;20042;-76
2023/03/09 05:22:22;;;;;;;38.10;16.48;;;0.30;99.90;;;-1.56;100.00;98513.97;5009967;28;20521;-76
2023/03/09 05:24:48;;;;;;;37.22;16.60;;;0.30;99.90;;;-1.57;100.00;98515.00;4986467;28;20036;-76
2023/03/09 05:27:15;;;;;;;37.70;15.43;;;0.20;99.90;;;-1.55;100.00;98509.47;5007234;28;20108;-77
2023/03/09 05:29:42;;;;;;;32.25;14.02;;;0.30;99.90;;;-1.53;100.00;98518.94;4984080;28;20074;-76
2023/03/09 05:32:09;;;;;;;36.30;16.17;;;0.30;99.90;;;-1.56;100.00;98521.19;4986808;28;20064;-76
2023/03/09 05:34:36;;;;;;;35.65;15.68;;;0.20;99.90;;;-1.58;100.00;98521.34;4984920;28;20042;-76
2023/03/09 05:37:02;;;;;;;34.90;15.75;;;0.20;99.90;;;-1.53;100.00;98526.16;4983577;28;20093;-76
2023/03/09 05:39:29;;;;;;;37.22;15.38;;;0.30;99.90;;;-1.51;100.00;98532.13;4986280;28;20510;-77
2023/03/09 05:41:56;;;;;;;32.45;14.88;;;0.30;99.90;;;-1.55;100.00;98530.84;5000597;28;20035;-76
2023/03/09 05:44:28;;;;;;;36.15;15.85;;;0.30;99.90;;;-1.53;100.00;98544.88;4984624;28;20038;-76
2023/03/09 05:46:55;;;;;;;33.33;15.23;;;0.30;99.90;;;-1.52;100.00;98551.88;4987860;28;20038;-76
2023/03/09 05:49:21;;;;;;;30.25;14.63;;;0.30;99.90;;;-1.49;100.00;98551.50;4987443;28;20117;-76
2023/03/09 05:51:49;;;;;;;36.03;15.25;;;0.30;99.90;;;-1.50;100.00;98557.84;5004013;28;20084;-76
2023/03/09 05:54:16;;;;;;;35.20;15.02;;;0.30;99.90;;;-1.50;100.00;98565.88;5004687;28;20069;-76
2023/03/09 05:56:43;;;;;;;36.05;16.10;;;0.30;99.90;;;-1.52;100.00;98578.63;5001939;28;20031;-76
2023/03/09 05:59:09;;;;;;;30.42;14.10;;;0.30;99.90;;;-1.50;100.00;98571.22;4971127;28;20116;-75
2023/03/09 06:01:35;;;;;;;33.55;14.93;;;0.30;99.90;;;-1.49;100.00;98563.00;4975108;28;20030;-76
2023/03/09 06:04:13;;;;;;;35.08;15.00;;;0.30;99.90;;;-1.48;100.00;98561.16;4990385;28;20085;-77
2023/03/09 06:06:42;;;;;;;32.42;14.48;;;0.30;99.90;;;-1.45;100.00;98579.50;4991363;28;20041;-76
2023/03/09 06:09:08;;;;;;;29.98;13.90;;;0.30;99.90;;;-1.43;100.00;98596.19;4994966;28;20052;-76
2023/03/09 06:11:34;;;;;;;28.98;14.02;;;0.40;99.90;;;-1.40;100.00;98592.31;4976522;28;20505;-76
2023/03/09 06:14:00;;;;;;;31.52;14.27;;;0.40;99.90;;;-1.36;100.00;98586.38;4993747;28;20042;-75
2023/03/09 06:16:34;;;;;;;33.38;14.40;;;0.40;99.90;;;-1.32;100.00;98595.72;5007921;28;20084;-76
2023/03/09 06:19:00;;;;;;;31.77;14.45;;;0.40;99.90;;;-1.32;100.00;98589.53;5008870;28;20385;-76
2023/03/09 06:21:26;;;;;;;31.80;14.75;;;0.50;99.90;;;-1.27;100.00;98591.63;5008600;28;20136;-76
2023/03/09 06:23:56;;;;;;;29.67;13.95;;;0.50;99.90;;;-1.27;100.00;98588.97;4992263;28;20038;-76
2023/03/09 06:26:24;;;;;;;33.47;14.63;;;0.50;99.90;;;-1.22;100.00;98591.88;4991917;28;20099;-76
2023/03/09 06:28:54;;;;;;;28.63;13.25;;;0.50;99.90;;;-1.25;100.00;98589.59;4991740;28;20371;-76
2023/03/09 06:31:20;;;;;;;32.85;15.73;;;0.50;99.90;;;-1.21;100.00;98597.03;4993057;28;20038;-75
2023/03/09 06:33:50;;;;;;;33.70;14.18;;;0.50;99.90;;;-1.20;100.00;98598.69;4991766;28;20034;-76
2023/03/09 06:36:18;;;;;;;28.85;14.55;;;0.60;99.90;;;-1.14;100.00;98607.81;4993735;28;20034;-76
2023/03/09 06:38:45;;;;;;;31.55;14.43;;;0.60;99.90;;;-1.06;100.00;98604.19;4972213;28;20049;-76
2023/03/09 06:41:12;;;;;;;26.92;14.02;;;0.60;99.90;;;-0.98;100.00;98617.44;4992147;28;20035;-76
2023/03/09 06:43:40;;;;;;;30.50;14.00;;;0.70;99.90;;;-0.93;100.00;98611.50;5007499;28;20088;-75
2023/03/09 06:46:08;;;;;;;28.55;13.43;;;0.70;99.90;;;-0.89;100.00;98613.63;4970476;28;20060;-74
2023/03/09 06:48:34;;;;;;;;;;;0.80;99.90;;;-0.79;100.00;98617.81;4993052;28;20078;-76
2023/03/09 06:51:00;;;;;;;29.55;12.95;;;0.90;99.90;;;-0.77;100.00;98621.13;5007577;28;19960;-75
2023/03/09 06:53:26;;;;;;;29.73;13.75;;;0.90;99.90;;;-0.70;100.00;98613.97;5004665;28;20116;-76
2023/03/09 06:56:00;;;;;;;26.58;13.18;;;1.00;99.90;;;-0.58;100.00;98622.31;4995095;28;20038;-76
2023/03/09 06:58:28;;;;;;;29.67;14.13;;;1.10;99.90;;;-0.49;100.00;98623.00;4992683;28;20034;-76
2023/03/09 07:00:53;;;;;;;30.90;14.18;;;1.20;99.90;;;-0.43;100.00;98627.56;4992854;28;20035;-77
2023/03/09 07:03:19;;;;;;;29.02;13.30;;;1.20;99.90;;;-0.38;100.00;98643.06;4993417;28;20031;-77
2023/03/09 07:05:45;;;;;;;32.30;14.52;;;1.30;99.90;;;-0.35;100.00;98656.06;4971306;28;20483;-76
2023/03/09 07:08:11;;;;;;;28.50;13.98;;;1.40;99.90;;;-0.20;100.00;98672.91;4993014;28;20038;-76
2023/03/09 07:10:37;;;;;;;28.35;13.18;;;1.50;99.90;;;-0.15;100.00;98681.19;4991185;28;20478;-76
2023/03/09 07:13:03;;;;;;;31.27;14.18;;;1.60;99.90;;;-0.14;100.00;98687.34;4992835;28;20034;-76
2023/03/09 07:15:29;;;;;;;27.00;13.55;;;1.60;99.90;;;-0.15;100.00;98689.22;4992469;28;20070;-77
2023/03/09 07:17:55;;;;;;;27.90;13.98;;;1.60;99.90;;;-0.19;100.00;98700.53;4992693;28;20144;-77
2023/03/09 07:20:23;;;;;;;28.88;13.90;;;1.50;99.90;;;-0.24;100.00;98692.25;4994890;28;20045;-76
2023/03/09 07:22:49;;;;;;;28.30;13.95;;;1.50;99.90;;;-0.24;100.00;98694.91;5001500;28;20058;-76
2023/03/09 07:25:16;;;;;;;28.35;13.57;;;1.50;99.90;;;-0.22;100.00;98698.22;4997475;28;20042;-76
2023/03/09 07:27:42;;;;;;;28.05;13.93;;;1.50;99.90;;;-0.19;100.00;98711.25;4996139;28;20070;-76
2023/03/09 07:30:09;;;;;;;31.77;14.20;;;1.50;99.90;;;-0.20;100.00;98720.31;4993081;28;20105;-77
2023/03/09 07:32:34;;;;;;;27.70;13.10;;;1.50;99.90;;;-0.13;100.00;98739.13;5001275;28;20034;-76
2023/03/09 07:35:00;;;;;;;27.45;13.10;;;1.60;99.90;;;-0.01;100.00;98751.81;4995272;28;20049;-76
2023/03/09 07:37:26;;;;;;;27.58;13.48;;;1.60;99.90;;;0.15;100.00;98760.59;4991326;28;20192;-77
2023/03/09 07:39:52;;;;;;;25.33;12.85;;;1.80;99.90;;;0.31;100.00;98756.78;5007419;28;20038;-77
2023/03/09 07:42:17;;;;;;;28.70;14.25;;;2.00;99.90;;;0.55;100.00;98765.41;4988352;28;20031;-75
2023/03/09 07:45:00;;;;;;;27.30;13.75;;;2.10;99.90;;;0.68;100.00;98768.16;5003797;28;20034;-75
2023/03/09 07:47:26;;;;;;;25.48;13.27;;;2.30;99.90;;;0.74;100.00;98776.44;4992261;28;20065;-76
2023/03/09 07:49:51;;;;;;;22.55;11.70;;;2.40;99.90;;;0.68;100.00;98778.88;4989158;28;20097;-76
2023/03/09 07:52:17;;;;;;;21.25;11.90;;;2.40;99.90;;;0.70;100.00;98784.88;4986924;28;20039;-76
2023/03/09 07:54:43;;;;;;;20.42;12.35;;;2.40;99.90;;;0.64;100.00;98788.34;4981702;28;20042;-77
2023/03/09 07:57:08;;;;;;;25.67;13.18;;;2.30;99.90;;;0.64;100.00;98788.34;4990700;28;20035;-78
2023/03/09 07:59:34;;;;;;;20.92;11.45;;;2.30;99.90;;;0.67;100.00;98787.97;4989358;28;20046;-77
2023/03/09 08:02:00;;;;;;;21.02;12.85;;;2.40;99.90;;;0.61;100.00;98799.50;4986718;28;20084;-77
2023/03/09 08:04:26;;;;;;;23.10;12.07;;;2.30;99.90;;;0.67;100.00;98790.66;4986148;28;20050;-76
2023/03/09 08:06:51;;;;;;;21.30;11.90;;;2.30;99.90;;;0.68;100.00;98795.00;4987554;28;20128;-76
2023/03/09 08:09:17;;;;;;;22.90;12.32;;;2.40;99.90;;;0.74;100.00;98793.38;5002770;28;20116;-77
2023/03/09 08:11:43;;;;;;;22.92;13.18;;;2.50;99.90;;;0.77;100.00;98794.81;4990985;28;20119;-76
2023/03/09 08:14:10;;;;;;;24.75;13.02;;;2.50;99.90;;;0.91;100.00;98803.75;4965973;28;20050;-79
2023/03/09 08:16:37;;;;;;;22.67;12.20;;;2.50;99.90;;;1.00;100.00;98802.59;4988181;28;20538;-76
2023/03/09 08:19:02;;;;;;;21.10;12.73;;;2.60;99.90;;;1.04;100.00;98798.47;4989977;28;20100;-77
2023/03/09 08:21:28;;;;;;;23.33;12.52;;;2.70;99.90;;;1.02;100.00;98811.28;4987137;28;20493;-77
2023/03/09 08:23:54;;;;;;;22.40;12.95;;;2.70;99.90;;;1.04;100.00;98817.28;4990700;28;20390;-77
2023/03/09 08:26:20;;;;;;;20.15;12.02;;;2.70;99.90;;;1.12;100.00;98830.53;5005729;28;20038;-76
2023/03/09 08:28:46;;;;;;;22.05;11.85;;;2.70;99.90;;;1.15;100.00;98838.19;4990248;28;20046;-76
2023/03/09 08:31:18;;;;;;;22.42;12.68;;;2.80;99.90;;;1.07;100.00;98838.34;4993192;28;20057;-77
2023/03/09 08:33:45;;;;;;;22.00;12.57;;;2.80;99.90;;;0.94;100.00;98836.44;4988580;28;20042;-77
2023/03/09 08:36:18;;;;;;;20.63;11.95;;;2.70;99.90;;;0.94;100.00;98847.19;4989797;28;20041;-77
2023/03/09 08:38:46;;;;;;;21.10;11.25;;;2.60;99.90;;;0.89;100.00;98846.94;4993270;28;20042;-78
2023/03/09 08:41:13;;;;;;;18.70;11.23;;;2.60;99.90;;;0.84;100.00;98849.41;4984806;28;20391;-78
2023/03/09 08:43:39;;;;;;;20.60;12.23;;;2.50;99.90;;;0.88;100.00;98853.34;4987452;28;20038;-77
2023/03/09 08:46:05;;;;;;;21.52;11.70;;;2.50;99.90;;;1.03;100.00;98847.00;4992520;28;20065;-77
2023/03/09 08:48:31;;;;;;;20.98;12.40;;;2.70;99.90;;;1.24;100.00;98854.16;4990750;28;20570;-77
2023/03/09 08:51:00;;;;;;;20.58;12.40;;;2.80;99.90;;;1.34;100.00;98854.59;4988762;28;20038;-77
2023/03/09 08:53:27;;;;;;;21.92;12.23;;;2.90;99.90;;;1.51;100.00;98840.81;4988597;28;20132;-76
2023/03/09 08:55:52;;;;;;;21.25;11.90;;;3.10;99.90;;;1.61;100.00;98851.19;4990076;28;20039;-79
2023/03/09 08:58:18;;;;;;;19.98;11.38;;;3.20;99.90;;;1.59;100.00;98864.81;4984547;28;20034;-77
2023/03/09 09:00:44;;;;;;;20.85;11.95;;;3.20;99.90;;;1.77;100.00;98866.13;4991130;28;20034;-77
2023/03/09 09:03:09;;;;;;;19.17;11.52;;;3.30;99.90;;;1.80;100.00;98871.09;4991372;28;20038;-77
2023/03/09 09:05:36;;;;;;;19.25;11.60;;;3.40;99.90;;;1.57;100.00;98862.31;4990328;28;20049;-78
2023/03/09 09:08:03;;;;;;;19.88;12.00;;;3.40;99.90;;;1.61;100.00;98883.44;4988188;28;20057;-80
2023/03/09 09:10:29;;;;;;;19.80;12.13;;;3.30;99.90;;;1.80;100.00;98887.22;4993349;28;20030;-79
2023/03/09 09:12:54;;;;;;;18.20;10.95;;;3.40;99.90;;;1.76;100.00;98892.16;4991178;28;20042;-79
2023/03/09 09:15:20;;;;;;;18.85;11.45;;;3.40;99.90;;;1.94;100.00;98902.34;4988739;28;20035;-80
2023/03/09 09:17:46;;;;;;;18.80;11.02;;;3.50;99.90;;;1.95;100.00;98892.44;4989291;28;20101;-78
2023/03/09 09:20:12;;;;;;;18.48;10.65;;;3.50;99.90;;;1.70;100.00;98895.66;4986105;28;20177;-78
2023/03/09 09:22:41;;;;;;;20.00;11.15;;;3.40;99.90;;;1.47;100.00;98888.75;4990568;28;20089;-78
2023/03/09 09:25:08;;;;;;;18.23;10.80;;;3.10;99.90;;;1.45;100.00;98893.50;4991272;28;20038;-76
2023/03/09 09:27:35;;;;;;;20.02;11.35;;;3.10;99.90;;;1.60;100.00;98897.91;4990028;28;20038;-77
2023/03/09 09:30:04;;;;;;;20.27;11.07;;;3.20;99.90;;;1.33;100.00;98892.44;4990881;28;20042;-76
2023/03/09 09:32:29;;;;;;;20.10;11.68;;;3.00;99.90;;;1.37;100.00;98896.38;4990369;28;20035;-77
2023/03/09 09:34:57;;;;;;;20.40;11.43;;;3.00;99.90;;;1.54;100.00;98896.84;4996997;28;20038;-77
2023/03/09 09:37:23;;;;;;;19.42;11.27;;;3.10;99.90;;;1.45;100.00;98882.75;4990444;28;20034;-78
2023/03/09 09:39:49;;;;;;;19.98;10.98;;;3.10;99.90;;;1.36;100.00;98884.78;4993575;28;20072;-78
2023/03/09 09:42:37;;;;;;;19.85;11.75;;;3.10;99.90;;;1.42;100.00;98900.09;4994602;28;20082;-78
2023/03/09 09:45:21;;;;;;;20.27;11.68;;;3.10;99.90;;;1.53;100.00;98916.69;4992368;28;20449;-78
2023/03/09 09:47:47;;;;;;;19.83;11.73;;;3.10;99.90;;;1.52;100.00;98906.97;4994208;28;20409;-77
2023/03/09 09:50:14;;;;;;;20.27;11.45;;;3.10;99.90;;;1.42;100.00;98912.72;4993766;28;20390;-78
2023/03/09 09:53:12;;;;;;;19.45;12.00;;;3.10;99.90;;;1.73;100.00;98916.78;4995448;28;20033;-78
2023/03/09 09:55:41;;;;;;;21.08;11.32;;;3.30;99.90;;;2.19;100.00;98917.09;4995230;28;20050;-77
2023/03/09 09:58:44;;;;;;;20.38;12.95;;;3.60;99.90;;;2.36;100.00;98918.34;4994157;28;20047;-77
2023/03/09 10:01:23;;;;;;;20.08;11.73;;;3.90;99.90;;;2.34;100.00;98917.72;4994951;28;20030;-77
2023/03/09 10:03:56;;;;;;;18.63;11.25;;;3.90;99.90;;;2.39;100.00;98915.28;4994532;28;20490;-77
2023/03/09 10:06:25;;;;;;;21.13;11.93;;;3.90;99.90;;;2.40;100.00;98919.63;4988234;28;21050;-78
2023/03/09 10:08:56;;;;;;;17.42;10.52;;;4.00;99.90;;;2.31;100.00;98923.53;4994346;28;20042;-78
2023/03/09 10:11:31;;;;;;;18.13;11.40;;;3.90;99.90;;;2.21;100.00;98939.25;4994388;28;20042;-78
2023/03/09 10:14:20;;;;;;;19.45;11.05;;;3.80;99.90;;;2.03;100.00;98943.34;4994159;28;20549;-78
2023/03/09 10:17:09;;;;;;;;;;;3.70;99.90;;;1.98;100.00;98948.50;5003604;28;20031;-78